createdAt,value
2022-12-17T09:04:39.886Z,10.88
2022-12-17T09:07:28.682Z,10.00
2022-12-17T09:10:18.143Z,11.25
2022-12-17T09:13:05.870Z,14.95
2022-12-17T09:15:54.867Z,15.93
2022-12-17T09:18:42.479Z,18.27
2022-12-17T09:21:32.028Z,16.05
2022-12-17T09:24:20.117Z,14.98
2022-12-17T09:27:10.329Z,14.93
2022-12-17T09:29:57.724Z,16.10
2022-12-17T09:32:45.859Z,14.38
2022-12-17T09:35:35.579Z,12.95
2022-12-17T09:38:24.678Z,14.10
2022-12-17T09:41:14.917Z,13.85
2022-12-17T09:44:22.266Z,11.05
2022-12-17T09:47:15.839Z,12.78
2022-12-17T09:50:05.045Z,12.45
2022-12-17T09:52:57.884Z,13.20
2022-12-17T09:55:53.373Z,13.48
2022-12-17T09:58:48.129Z,13.30
2022-12-17T10:01:41.074Z,14.05
2022-12-17T10:04:44.020Z,15.18
2022-12-17T10:07:43.716Z,11.03
2022-12-17T10:10:44.915Z,13.43
2022-12-17T10:13:37.701Z,14.23
2022-12-17T10:16:49.120Z,15.50
2022-12-17T10:19:56.158Z,14.85
2022-12-17T10:22:47.628Z,16.30
2022-12-17T10:25:40.991Z,15.85
2022-12-17T10:28:37.130Z,16.23
2022-12-17T10:31:49.273Z,15.58
2022-12-17T10:34:47.752Z,13.95
2022-12-17T10:37:40.638Z,15.30
2022-12-17T10:40:41.832Z,12.43
2022-12-17T10:43:47.483Z,12.60
2022-12-17T10:46:52.784Z,13.35
2022-12-17T11:00:27.039Z,12.95
2022-12-17T11:03:28.685Z,11.65
2022-12-17T11:06:20.494Z,12.63
2022-12-17T11:09:09.264Z,10.93
2022-12-17T11:11:56.440Z,12.30
2022-12-17T11:14:46.780Z,12.75
2022-12-17T11:17:35.747Z,13.78
2022-12-17T11:20:27.169Z,23.62
2022-12-17T11:23:18.181Z,15.50
2022-12-17T11:26:28.254Z,14.50
2022-12-17T11:29:18.008Z,15.53
2022-12-17T11:32:41.583Z,14.95
2022-12-17T11:35:37.407Z,12.45
2022-12-17T11:38:53.216Z,13.50
2022-12-17T11:42:10.884Z,14.85
2022-12-17T11:45:06.868Z,13.25
2022-12-17T11:48:02.900Z,12.55
2022-12-17T11:51:02.007Z,12.45
2022-12-17T11:54:11.540Z,12.35
2022-12-17T11:57:13.201Z,13.55
2022-12-17T12:00:26.946Z,12.50
2022-12-17T12:03:42.987Z,11.63
2022-12-17T12:06:43.554Z,10.72
2022-12-17T12:09:46.989Z,11.22
2022-12-17T12:12:56.149Z,10.13
2022-12-17T12:16:24.413Z,10.53
2022-12-17T12:19:44.611Z,13.65
2022-12-17T12:22:48.224Z,13.40
2022-12-17T12:26:02.256Z,13.80
2022-12-17T12:28:57.671Z,11.10
2022-12-17T12:32:00.298Z,14.43
2022-12-17T12:34:50.545Z,12.13
2022-12-17T12:37:38.069Z,9.50
2022-12-17T12:43:46.525Z,15.20
2022-12-17T12:46:51.379Z,10.30
2022-12-17T12:49:49.971Z,14.70
2022-12-17T12:52:43.007Z,14.23
2022-12-17T12:55:30.320Z,11.63
2022-12-17T12:58:24.816Z,12.95
2022-12-17T13:01:13.436Z,13.70
2022-12-17T13:04:09.911Z,11.88
2022-12-17T13:06:56.822Z,12.33
2022-12-17T13:09:35.238Z,12.90
2022-12-17T13:12:13.444Z,11.65
2022-12-17T13:15:09.159Z,10.43
2022-12-17T13:17:43.451Z,11.97
2022-12-17T13:20:29.070Z,12.63
2022-12-17T13:23:17.289Z,10.50
2022-12-17T13:25:46.436Z,10.45
2022-12-17T13:28:30.680Z,10.80
2022-12-17T13:31:05.142Z,10.13
2022-12-17T13:33:58.356Z,11.12
2022-12-17T13:36:53.952Z,11.95
2022-12-17T13:39:58.520Z,11.60
2022-12-17T13:42:32.418Z,11.57
2022-12-17T13:45:00.984Z,13.53
2022-12-17T13:47:34.935Z,12.85
2022-12-17T13:52:38.019Z,10.28
2022-12-17T13:55:09.537Z,11.65
2022-12-17T13:57:42.153Z,16.60
2022-12-17T14:00:29.629Z,14.18
2022-12-17T14:03:00.321Z,12.63
2022-12-17T14:05:37.529Z,12.13
2022-12-17T14:08:06.303Z,13.85
2022-12-17T14:10:35.696Z,13.08
2022-12-17T14:13:10.426Z,13.15
2022-12-17T14:15:41.734Z,12.13
2022-12-17T14:18:14.383Z,11.33
2022-12-17T14:20:43.752Z,13.20
2022-12-17T14:23:22.005Z,15.15
2022-12-17T14:25:50.567Z,15.40
2022-12-17T14:28:36.751Z,16.15
2022-12-17T14:31:26.697Z,16.20
2022-12-17T14:33:48.160Z,15.50
2022-12-17T14:36:23.420Z,15.90
2022-12-17T14:39:00.335Z,14.93
2022-12-17T14:41:53.335Z,14.87
2022-12-17T14:44:35.919Z,12.58
2022-12-17T14:47:22.346Z,13.13
2022-12-17T14:50:07.443Z,10.85
2022-12-17T14:52:44.610Z,10.43
2022-12-17T14:55:42.422Z,7.83
2022-12-17T14:58:18.904Z,10.05
2022-12-17T15:00:53.623Z,9.58
2022-12-17T15:03:33.677Z,9.03
2022-12-17T15:06:10.611Z,8.85
2022-12-17T15:08:43.623Z,10.00
2022-12-17T15:11:15.691Z,10.18
2022-12-17T15:13:45.129Z,10.53
2022-12-17T15:16:26.220Z,11.97
2022-12-17T15:19:01.346Z,12.03
2022-12-17T15:21:32.321Z,12.40
2022-12-17T15:24:04.709Z,11.73
2022-12-17T15:26:36.130Z,12.28
2022-12-17T15:29:06.506Z,12.53
2022-12-17T15:31:36.221Z,11.55
2022-12-17T15:34:07.600Z,12.13
2022-12-17T15:36:38.453Z,13.13
2022-12-17T15:39:09.719Z,15.68
2022-12-17T15:41:57.809Z,15.95
2022-12-17T15:44:28.351Z,14.68
2022-12-17T15:46:58.861Z,11.78
2022-12-17T15:49:29.395Z,10.48
2022-12-17T15:52:00.467Z,8.55
2022-12-17T15:54:31.281Z,8.88
2022-12-17T15:57:00.836Z,10.70
2022-12-17T15:59:33.299Z,8.78
2022-12-17T16:02:03.515Z,8.18
2022-12-17T16:04:34.392Z,8.18
2022-12-17T16:07:04.814Z,9.08
2022-12-17T16:09:34.677Z,9.08
2022-12-17T16:12:04.780Z,10.10
2022-12-17T16:14:33.211Z,12.03
2022-12-17T16:17:02.174Z,12.60
2022-12-17T16:19:32.298Z,12.88
2022-12-17T16:22:01.887Z,10.95
2022-12-17T16:24:31.204Z,8.65
2022-12-17T16:27:04.272Z,9.00
2022-12-17T16:29:31.723Z,7.97
2022-12-17T16:32:00.796Z,7.12
2022-12-17T16:34:29.513Z,7.58
2022-12-17T16:37:01.633Z,8.08
2022-12-17T16:39:31.259Z,8.65
2022-12-17T16:41:59.756Z,9.50
2022-12-17T16:44:28.702Z,10.53
2022-12-17T16:46:58.130Z,9.65
2022-12-17T16:49:28.576Z,8.68
2022-12-17T16:51:58.188Z,8.55
2022-12-17T16:54:30.200Z,10.00
2022-12-17T16:57:01.911Z,9.55
2022-12-17T16:59:50.553Z,10.13
2022-12-17T17:02:19.765Z,7.55
2022-12-17T17:04:48.796Z,6.90
2022-12-17T17:07:17.529Z,5.00
2022-12-17T17:09:46.650Z,7.90
2022-12-17T17:12:17.965Z,6.05
2022-12-17T17:14:47.470Z,5.67
2022-12-17T17:17:16.406Z,4.58
2022-12-17T17:19:45.353Z,3.95
2022-12-17T17:22:14.504Z,3.67
2022-12-17T17:24:43.992Z,4.28
2022-12-17T17:27:12.871Z,4.62
2022-12-17T17:29:42.144Z,3.65
2022-12-17T17:32:12.870Z,2.98
2022-12-17T17:34:42.427Z,3.70
2022-12-17T17:37:10.888Z,2.95
2022-12-17T17:39:39.508Z,3.50
2022-12-17T17:42:08.009Z,3.22
2022-12-17T17:44:37.101Z,3.87
2022-12-17T17:47:05.794Z,3.35
2022-12-17T17:49:34.968Z,4.28
2022-12-17T17:52:11.582Z,3.98
2022-12-17T17:54:33.981Z,3.83
2022-12-17T17:57:03.071Z,3.15
2022-12-17T17:59:34.108Z,3.62
2022-12-17T18:02:03.186Z,4.30
2022-12-17T18:04:33.079Z,3.52
2022-12-17T18:07:24.753Z,3.67
2022-12-17T18:09:34.529Z,3.72
2022-12-17T18:12:04.882Z,3.00
2022-12-17T18:14:41.721Z,2.20
2022-12-17T18:17:07.110Z,2.30
2022-12-17T18:19:35.882Z,2.02
2022-12-17T18:22:05.032Z,2.17
2022-12-17T18:24:35.288Z,1.98
2022-12-17T18:27:03.833Z,2.50
2022-12-17T18:29:34.410Z,3.72
2022-12-17T18:32:03.031Z,4.28
2022-12-17T18:34:34.800Z,4.03
2022-12-17T18:37:05.095Z,4.28
2022-12-17T18:39:33.890Z,4.55
2022-12-17T18:42:21.006Z,3.90
2022-12-17T18:44:50.055Z,5.12
2022-12-17T18:47:19.103Z,4.67
2022-12-17T18:49:48.095Z,3.20
2022-12-17T18:52:17.690Z,2.10
2022-12-17T18:54:47.849Z,3.00
2022-12-17T18:57:16.700Z,2.98
2022-12-17T18:59:45.701Z,2.15
2022-12-17T19:02:14.430Z,1.95
2022-12-17T19:04:44.111Z,2.35
2022-12-17T19:07:12.621Z,2.00
2022-12-17T19:09:42.144Z,2.30
2022-12-17T19:12:10.666Z,1.80
2022-12-17T19:14:39.421Z,1.85
2022-12-17T19:17:07.822Z,2.25
2022-12-17T19:19:36.474Z,2.87
2022-12-17T19:22:05.929Z,2.75
2022-12-17T19:24:35.084Z,3.60
2022-12-17T19:27:04.628Z,4.83
2022-12-17T19:29:35.554Z,3.05
2022-12-17T19:32:05.099Z,2.10
2022-12-17T19:34:35.059Z,1.82
2022-12-17T19:37:04.388Z,2.50
2022-12-17T19:39:33.370Z,2.35
2022-12-17T19:42:02.090Z,2.50
2022-12-17T19:44:30.757Z,1.90
2022-12-17T19:46:59.759Z,2.67
2022-12-17T19:49:29.399Z,2.17
2022-12-17T19:51:58.404Z,2.20
2022-12-17T19:54:27.887Z,2.58
2022-12-17T19:56:56.976Z,1.62
2022-12-17T19:59:26.053Z,1.70
2022-12-17T20:01:54.645Z,1.57
2022-12-17T20:04:23.584Z,1.87
2022-12-17T20:06:52.185Z,1.70
2022-12-17T20:09:21.321Z,1.70
2022-12-17T20:11:51.045Z,1.87
2022-12-17T20:14:25.647Z,1.60
2022-12-17T20:16:58.022Z,1.60
2022-12-17T20:19:30.985Z,1.50
2022-12-17T20:22:00.695Z,1.60
2022-12-17T20:24:31.843Z,2.80
2022-12-17T20:27:00.507Z,2.00
2022-12-17T20:29:29.125Z,1.55
2022-12-17T20:31:57.710Z,1.60
2022-12-17T20:34:26.423Z,2.10
2022-12-17T20:36:55.398Z,1.30
2022-12-17T20:39:27.444Z,1.98
2022-12-17T20:41:56.866Z,1.52
2022-12-17T20:44:25.675Z,1.45
2022-12-17T20:46:55.438Z,1.30
2022-12-17T20:49:24.213Z,1.30
2022-12-17T20:51:52.817Z,1.95
2022-12-17T20:54:23.070Z,1.87
2022-12-17T20:56:51.884Z,1.60
2022-12-17T20:59:20.912Z,1.60
2022-12-17T21:01:54.418Z,1.80
2022-12-17T21:04:20.338Z,1.92
2022-12-17T21:06:48.756Z,2.10
2022-12-17T21:09:22.274Z,2.25
2022-12-17T21:11:50.812Z,2.30
2022-12-17T21:14:19.518Z,2.00
2022-12-17T21:16:48.144Z,1.80
2022-12-17T21:19:19.004Z,2.25
2022-12-17T21:21:47.696Z,2.22
2022-12-17T21:24:16.460Z,2.20
2022-12-17T21:26:46.888Z,2.12
2022-12-17T21:29:15.679Z,2.45
2022-12-17T21:31:50.216Z,2.52
2022-12-17T21:34:22.168Z,3.08
2022-12-17T21:36:52.319Z,2.72
2022-12-17T21:39:21.180Z,3.35
2022-12-17T21:42:08.195Z,3.27
2022-12-17T21:44:39.526Z,3.20
2022-12-17T21:47:08.842Z,3.60
2022-12-17T21:49:37.258Z,3.80
2022-12-17T21:52:07.725Z,4.00
2022-12-17T21:54:38.026Z,4.42
2022-12-17T21:57:07.389Z,5.10
2022-12-17T21:59:35.963Z,4.70
2022-12-17T22:02:04.567Z,4.40
2022-12-17T22:04:34.527Z,4.60
2022-12-17T22:07:05.442Z,4.42
2022-12-17T22:09:44.286Z,4.62
2022-12-17T22:12:23.633Z,5.20
2022-12-17T22:14:53.319Z,5.20
2022-12-17T22:17:24.213Z,5.05
2022-12-17T22:19:54.874Z,5.42
2022-12-17T22:22:23.656Z,4.95
2022-12-17T22:24:52.415Z,5.20
2022-12-17T22:27:21.256Z,5.47
2022-12-17T22:30:09.667Z,6.28
2022-12-17T22:32:57.412Z,5.97
2022-12-17T22:35:52.767Z,5.83
2022-12-17T22:41:32.982Z,6.85
2022-12-17T22:44:33.364Z,6.62
2022-12-17T22:44:49.752Z,7.08
2022-12-17T22:45:52.523Z,6.75
2022-12-17T22:48:23.118Z,6.33
2022-12-17T22:51:05.917Z,7.83
2022-12-17T22:53:25.754Z,7.03
2022-12-17T22:55:54.578Z,7.72
2022-12-17T22:58:24.652Z,8.08
2022-12-17T23:00:54.757Z,8.55
2022-12-17T23:03:24.529Z,7.58
2022-12-17T23:05:57.649Z,7.97
2022-12-17T23:08:27.062Z,7.50
2022-12-17T23:10:56.230Z,7.85
2022-12-17T23:13:25.632Z,7.53
2022-12-17T23:15:54.587Z,7.60
2022-12-17T23:18:23.334Z,6.87
2022-12-17T23:20:53.394Z,6.53
2022-12-17T23:23:22.019Z,7.05
2022-12-17T23:25:50.560Z,7.28
2022-12-17T23:28:19.734Z,7.17
2022-12-17T23:30:48.675Z,6.78
2022-12-17T23:33:17.835Z,6.83
2022-12-17T23:35:46.446Z,6.45
2022-12-17T23:38:15.992Z,7.60
2022-12-17T23:40:44.794Z,7.78
2022-12-17T23:43:17.501Z,7.58
2022-12-17T23:45:45.327Z,8.05
2022-12-17T23:48:14.242Z,7.62
2022-12-17T23:50:42.883Z,8.03
2022-12-17T23:53:13.565Z,8.23
2022-12-17T23:55:42.456Z,8.18
2022-12-17T23:58:11.140Z,7.83
